Galati 6 — YQVT — position and weather

sailwx.info

Track history (hours):
 
Tides and Currents Weather Stations Pressure Air Temp Water Temp Dewpoint Dewpoint Depression Visibility Wind Speed Wind Dir Waves Ship Positions

Galati 6

Last reported at 2018-Feb-25 21:30 UTC. Time now 2018-Feb-25 21:57 UTC.
Position N 44°10' E 028°40'.

Length 36 m; draft 3.5 m.

Type: Tug. MMSI: 264900047.

Date/timePositionNaut miles runAvg speedWind from/ knotsBaromVisibWave heightAir tempDewpointWater temp
2018-Feb-25 21:30N 44°10' E 028°40'0 0.0
2018-Feb-25 21:00N 44°10' E 028°40'0 0.0
2018-Feb-25 20:27N 44°10' E 028°40'0 0.0
2018-Feb-25 20:00N 44°10' E 028°40'0 0.0
2018-Feb-25 19:30N 44°10' E 028°40'0 0.0
2018-Feb-25 18:57N 44°10' E 028°40'0 0.0
2018-Feb-25 18:30N 44°10' E 028°40'0 0.0
2018-Feb-25 18:00N 44°10' E 028°40'0 0.0
2018-Feb-25 17:30N 44°10' E 028°40'0 0.0
2018-Feb-25 17:00N 44°10' E 028°40'0 0.0
2018-Feb-25 16:30N 44°10' E 028°40'0 0.0
2018-Feb-25 16:00N 44°10' E 028°40'0 0.0
2018-Feb-25 15:30N 44°10' E 028°40'0 0.0
2018-Feb-25 15:00N 44°10' E 028°40'0 0.0
2018-Feb-25 14:30N 44°10' E 028°40'0 0.0
2018-Feb-25 14:00N 44°10' E 028°40'0 0.0
2018-Feb-25 13:27N 44°10' E 028°40'0 0.0
2018-Feb-25 13:00N 44°10' E 028°40'0 0.5
2018-Feb-25 12:30N 44°09' E 028°40'3 6.3
2018-Feb-25 12:00N 44°07' E 028°42'3 5.5
2018-Feb-25 11:30N 44°09' E 028°44'510.0
2018-Feb-25 11:00N 44°14' E 028°43'510.1
2018-Feb-25 10:30N 44°19' E 028°42'1 2.6
2018-Feb-25 09:59N 44°20' E 028°40'0 0.2
2018-Feb-25 09:28N 44°20' E 028°40'1 1.4
2018-Feb-25 08:59N 44°20' E 028°41'0 0.6
2018-Feb-25 08:30N 44°21' E 028°41'0 0.0
2018-Feb-25 08:00N 44°21' E 028°41'0 0.0
2018-Feb-25 07:21N 44°21' E 028°41'0 0.0
2018-Feb-25 06:45N 44°21' E 028°41'0 0.0
2018-Feb-25 06:15N 44°21' E 028°41'0 0.0
2018-Feb-25 06:00N 44°21' E 028°41'0 0.0
2018-Feb-25 05:30N 44°21' E 028°41'0 0.0
2018-Feb-25 05:00N 44°21' E 028°41'0 0.0
2018-Feb-25 04:30N 44°21' E 028°41'0 0.0
2018-Feb-25 04:00N 44°21' E 028°41'0 0.0
2018-Feb-25 03:30N 44°21' E 028°41'0 0.0
2018-Feb-25 03:00N 44°21' E 028°41'0 0.0
2018-Feb-25 02:30N 44°21' E 028°41'0 0.0
2018-Feb-25 02:00N 44°21' E 028°41'0 0.0
2018-Feb-25 01:30N 44°21' E 028°41'0 0.0
2018-Feb-25 00:57N 44°21' E 028°41'0 0.0
2018-Feb-25 00:30N 44°21' E 028°41'0 0.0
2018-Feb-25 00:00N 44°21' E 028°41'0 0.0
2018-Feb-24 23:30N 44°21' E 028°41'0 0.0
2018-Feb-24 23:00N 44°21' E 028°41'0 0.0
2018-Feb-24 22:30N 44°21' E 028°41'0 0.0
2018-Feb-24 22:00N 44°21' E 028°41'0 0.0
2018-Feb-24 21:30N 44°21' E 028°41'0 0.0
2018-Feb-24 21:00N 44°21' E 028°41'0 0.0
2018-Feb-24 20:30N 44°21' E 028°41'0 0.0
2018-Feb-24 19:54N 44°21' E 028°41'0 0.0
2018-Feb-24 19:27N 44°21' E 028°41'0 0.0
2018-Feb-24 19:00N 44°21' E 028°41'0 0.0
2018-Feb-24 18:30N 44°21' E 028°41'0 0.0
2018-Feb-24 18:00N 44°21' E 028°41'0 0.0
2018-Feb-24 17:30N 44°21' E 028°41'0 0.0
2018-Feb-24 16:57N 44°21' E 028°41'0 0.0
2018-Feb-24 16:30N 44°21' E 028°41'0 0.0
2018-Feb-24 15:57N 44°21' E 028°41'1 3.2
2018-Feb-24 15:30N 44°19' E 028°42'4 8.3
2018-Feb-24 15:00N 44°15' E 028°41'4 8.1
2018-Feb-24 14:30N 44°11' E 028°42'4 7.8
2018-Feb-24 14:00N 44°07' E 028°43'1 2.7
2018-Feb-24 13:30N 44°08' E 028°41'2 4.0
2018-Feb-24 12:58N 44°10' E 028°40'0 0.0
2018-Feb-24 12:28N 44°10' E 028°40'0 0.0
2018-Feb-24 11:58N 44°10' E 028°40'0 0.0
2018-Feb-24 11:28N 44°10' E 028°40'0 0.0
2018-Feb-24 10:58N 44°10' E 028°40'0 0.0
2018-Feb-24 10:28N 44°10' E 028°40'0 0.0
2018-Feb-24 09:58N 44°10' E 028°40'0 0.0
2018-Feb-24 09:28N 44°10' E 028°40'0 0.0
2018-Feb-24 08:58N 44°10' E 028°40'0 0.0
2018-Feb-24 08:28N 44°10' E 028°40'0 0.0
2018-Feb-24 07:58N 44°10' E 028°40'0 0.0
2018-Feb-24 07:28N 44°10' E 028°40'0 0.0
2018-Feb-24 06:55N 44°10' E 028°40'0 0.0
2018-Feb-24 06:28N 44°10' E 028°40'0 0.0
2018-Feb-24 05:58N 44°10' E 028°40'0 0.0
2018-Feb-24 05:28N 44°10' E 028°40'0 0.0
2018-Feb-24 04:58N 44°10' E 028°40'0 0.0
2018-Feb-24 04:28N 44°10' E 028°40'0 0.0
2018-Feb-24 03:58N 44°10' E 028°40'0 0.0
2018-Feb-24 03:28N 44°10' E 028°40'0 0.0
2018-Feb-24 02:55N 44°10' E 028°40'0 0.0
2018-Feb-24 02:28N 44°10' E 028°40'0 0.0
2018-Feb-24 01:55N 44°10' E 028°40'0 0.0
2018-Feb-24 01:28N 44°10' E 028°40'0 0.0
2018-Feb-24 00:58N 44°10' E 028°40'0 0.0
2018-Feb-24 00:28N 44°10' E 028°40'0 0.0
2018-Feb-23 23:58N 44°10' E 028°40'0 0.0
2018-Feb-23 23:28N 44°10' E 028°40'0 0.0
2018-Feb-23 22:58N 44°10' E 028°40'0 0.0
2018-Feb-23 22:30N 44°10' E 028°40'1 1.3
2018-Feb-23 21:59N 44°09' E 028°39'1 1.6
2018-Feb-23 21:30N 44°09' E 028°40'1 1.4
2018-Feb-23 21:00N 44°10' E 028°40'0 0.0
2018-Feb-23 20:30N 44°10' E 028°40'0 0.0
2018-Feb-23 19:57N 44°10' E 028°40'0 0.0
2018-Feb-23 19:24N 44°10' E 028°40'0 0.0
2018-Feb-23 19:00N 44°10' E 028°40'0 0.0
2018-Feb-23 18:30N 44°10' E 028°40'0 0.0
2018-Feb-23 18:00N 44°10' E 028°40'0 0.0
2018-Feb-23 17:30N 44°10' E 028°40'0 0.0
2018-Feb-23 17:00N 44°10' E 028°40'0 0.0
2018-Feb-23 16:27N 44°10' E 028°40'0 0.0
2018-Feb-23 16:00N 44°10' E 028°40'0 0.0
2018-Feb-23 15:30N 44°10' E 028°40'0 0.0
2018-Feb-23 14:57N 44°10' E 028°40'0 0.0
2018-Feb-23 14:27N 44°10' E 028°40'0 0.0
2018-Feb-23 14:00N 44°10' E 028°40'0 0.0
2018-Feb-23 13:30N 44°10' E 028°40'0 0.0
2018-Feb-23 13:00N 44°10' E 028°40'0 0.0
2018-Feb-23 12:30N 44°10' E 028°40'0 0.0
2018-Feb-23 12:00N 44°10' E 028°40'0 0.0
2018-Feb-23 11:30N 44°10' E 028°40'0 0.0
2018-Feb-23 11:00N 44°10' E 028°40'0 0.0
2018-Feb-23 10:30N 44°10' E 028°40'0 0.0
2018-Feb-23 10:00N 44°10' E 028°40'0 0.0
2018-Feb-23 09:30N 44°10' E 028°40'0 0.0
2018-Feb-23 09:00N 44°10' E 028°40'0 0.0
2018-Feb-23 08:30N 44°10' E 028°40'0 0.0
2018-Feb-23 07:57N 44°10' E 028°40'0 0.0
2018-Feb-23 07:30N 44°10' E 028°40'0 0.0
2018-Feb-23 06:54N 44°10' E 028°40'0 0.0
2018-Feb-23 06:30N 44°10' E 028°40'0 0.0
2018-Feb-23 06:00N 44°10' E 028°40'0 0.0
2018-Feb-23 05:30N 44°10' E 028°40'0 0.0
2018-Feb-23 05:00N 44°10' E 028°40'0 0.0
2018-Feb-23 04:30N 44°10' E 028°40'0 0.0
2018-Feb-23 04:00N 44°10' E 028°40'0 0.0
2018-Feb-23 03:30N 44°10' E 028°40'0 0.0
2018-Feb-23 03:00N 44°10' E 028°40'0 0.0
2018-Feb-23 02:30N 44°10' E 028°40'0 0.0
2018-Feb-23 02:00N 44°10' E 028°40'0 0.0
2018-Feb-23 01:30N 44°10' E 028°40'0 0.0
2018-Feb-23 01:00N 44°10' E 028°40'0 0.0
2018-Feb-23 00:30N 44°10' E 028°40'0 0.0
2018-Feb-23 00:00N 44°10' E 028°40'0 0.0
2018-Feb-22 23:27N 44°10' E 028°40'0 0.0
2018-Feb-22 23:00N 44°10' E 028°40'1 1.3
2018-Feb-22 22:28N 44°09' E 028°40'0 0.5
2018-Feb-22 21:59N 44°09' E 028°40'1 1.4
2018-Feb-22 21:30N 44°09' E 028°40'1 2.2
2018-Feb-22 21:00N 44°10' E 028°40'0 0.0
2018-Feb-22 20:30N 44°10' E 028°40'0 0.0
2018-Feb-22 20:00N 44°10' E 028°40'0 0.0
2018-Feb-22 19:30N 44°10' E 028°40'0 0.0
2018-Feb-22 19:00N 44°10' E 028°40'0 0.0
2018-Feb-22 18:30N 44°10' E 028°40'0 0.0
2018-Feb-22 18:00N 44°10' E 028°40'0 0.0
2018-Feb-22 17:30N 44°10' E 028°40'0 0.0
2018-Feb-22 17:00N 44°10' E 028°40'0 0.0
2018-Feb-22 16:30N 44°10' E 028°40'0 0.0
2018-Feb-22 16:00N 44°10' E 028°40'0 0.0
2018-Feb-22 15:30N 44°10' E 028°40'0 0.0
2018-Feb-22 15:00N 44°10' E 028°40'0 0.0
2018-Feb-22 14:30N 44°10' E 028°40'0 0.0
2018-Feb-22 14:00N 44°10' E 028°40'0 0.0
2018-Feb-22 13:30N 44°10' E 028°40'0 0.0
2018-Feb-22 13:00N 44°10' E 028°40'0 0.0
2018-Feb-22 12:30N 44°10' E 028°40'0 0.0
2018-Feb-22 11:54N 44°10' E 028°40'0 0.0
2018-Feb-22 11:30N 44°10' E 028°40'0 0.0
2018-Feb-22 11:00N 44°10' E 028°40'0 0.0
2018-Feb-22 10:30N 44°10' E 028°40'0 0.0
2018-Feb-22 10:00N 44°10' E 028°40'0 0.0
2018-Feb-22 09:18N 44°10' E 028°40'0 0.0
2018-Feb-22 09:00N 44°10' E 028°40'0 0.0
2018-Feb-22 08:30N 44°10' E 028°40'0 0.0
2018-Feb-22 08:00N 44°10' E 028°40'0 0.0
2018-Feb-22 07:30N 44°10' E 028°40'0 0.0
2018-Feb-22 06:54N 44°10' E 028°40'0 0.0
2018-Feb-22 06:30N 44°10' E 028°40'0 0.0
2018-Feb-22 06:00N 44°10' E 028°40'0 0.0
2018-Feb-22 05:30N 44°10' E 028°40'0 0.9
2018-Feb-22 05:00N 44°09' E 028°40'0 0.9
2018-Feb-22 04:30N 44°09' E 028°40'0 0.1
2018-Feb-22 04:00N 44°09' E 028°40'1 1.5
2018-Feb-22 03:29N 44°10' E 028°40'0 0.0
2018-Feb-22 02:59N 44°10' E 028°40'0 0.0
2018-Feb-22 02:29N 44°10' E 028°40'0 0.0
2018-Feb-22 01:59N 44°10' E 028°40'0 0.0
2018-Feb-22 01:29N 44°10' E 028°40'0 0.0
2018-Feb-22 00:59N 44°10' E 028°40'0 0.0
2018-Feb-22 00:29N 44°10' E 028°40'0 0.0
2018-Feb-21 23:56N 44°10' E 028°40'0 0.0
2018-Feb-21 23:29N 44°10' E 028°40'0 0.0
2018-Feb-21 22:59N 44°10' E 028°40'0 0.0
2018-Feb-21 22:29N 44°10' E 028°40'0 0.0
2018-Feb-21 21:59N 44°10' E 028°40'0 0.0
2018-Feb-21 21:29N 44°10' E 028°40'0 0.0
2018-Feb-21 20:56N 44°10' E 028°40'0 0.0
2018-Feb-21 20:26N 44°10' E 028°40'0 0.0
2018-Feb-21 19:59N 44°10' E 028°40'0 0.0
2018-Feb-21 19:29N 44°10' E 028°40'0 0.0
2018-Feb-21 18:59N 44°10' E 028°40'0 0.0
2018-Feb-21 18:29N 44°10' E 028°40'0 0.0
2018-Feb-21 17:56N 44°10' E 028°40'0 0.0
2018-Feb-21 17:29N 44°10' E 028°40'0 0.0
2018-Feb-21 16:59N 44°10' E 028°40'0 0.0
2018-Feb-21 16:29N 44°10' E 028°40'0 0.0
2018-Feb-21 15:59N 44°10' E 028°40'0 0.0
2018-Feb-21 15:29N 44°10' E 028°40'1 0.8
2018-Feb-21 14:53N 44°10' E 028°39'1 1.4
2018-Feb-21 14:30N 44°10' E 028°40'0 0.0
2018-Feb-21 14:00N 44°10' E 028°40'0 0.0
2018-Feb-21 13:30N 44°10' E 028°40'0 0.0
2018-Feb-21 13:00N 44°10' E 028°40'0 0.0
2018-Feb-21 12:30N 44°10' E 028°40'0 0.0
2018-Feb-21 12:00N 44°10' E 028°40'0 0.0
2018-Feb-21 11:30N 44°10' E 028°40'0 0.0
2018-Feb-21 11:00N 44°10' E 028°40'0 0.0
2018-Feb-21 10:30N 44°10' E 028°40'0 0.0
2018-Feb-21 10:00N 44°10' E 028°40'0 0.0
2018-Feb-21 09:30N 44°10' E 028°40'0 0.0
2018-Feb-21 09:00N 44°10' E 028°40'0 0.0
2018-Feb-21 08:30N 44°10' E 028°40'0 0.0
2018-Feb-21 08:00N 44°10' E 028°40'0 0.1
2018-Feb-21 07:23N 44°10' E 028°40'0 0.1
2018-Feb-21 06:58N 44°10' E 028°40'0 0.1
2018-Feb-21 06:28N 44°10' E 028°40'0 0.0
2018-Feb-21 05:58N 44°10' E 028°40'0 0.0
2018-Feb-21 05:28N 44°10' E 028°40'0 0.0
2018-Feb-21 04:58N 44°10' E 028°40'1 2.4
2018-Feb-21 04:30N 44°09' E 028°40'0 0.9
2018-Feb-21 04:00N 44°09' E 028°39'1 2.0
2018-Feb-21 03:30N 44°10' E 028°40'0 0.1
2018-Feb-21 02:59N 44°10' E 028°40'0 0.0
2018-Feb-21 02:29N 44°10' E 028°40'0 0.0
2018-Feb-21 01:59N 44°10' E 028°40'0 0.0
2018-Feb-21 01:26N 44°10' E 028°40'0 0.0
2018-Feb-21 01:00N 44°10' E 028°40'0 0.0
2018-Feb-21 00:29N 44°10' E 028°40'0 0.0
2018-Feb-20 23:59N 44°10' E 028°40'0 0.0
2018-Feb-20 23:26N 44°10' E 028°40'0 0.0
2018-Feb-20 22:59N 44°10' E 028°40'0 0.0
2018-Feb-20 22:29N 44°10' E 028°40'0 0.0
2018-Feb-20 21:59N 44°10' E 028°40'0 0.0
2018-Feb-20 21:29N 44°10' E 028°40'0 0.0
2018-Feb-20 20:59N 44°10' E 028°40'0 0.0
2018-Feb-20 20:29N 44°10' E 028°40'0 0.0
2018-Feb-20 19:59N 44°10' E 028°40'0 0.0
2018-Feb-20 19:29N 44°10' E 028°40'0 0.0
2018-Feb-20 18:59N 44°10' E 028°40'0 0.0
2018-Feb-20 18:29N 44°10' E 028°40'0 0.0
2018-Feb-20 17:59N 44°10' E 028°40'0 0.0
2018-Feb-20 17:29N 44°10' E 028°40'0 0.0
2018-Feb-20 16:59N 44°10' E 028°40'0 0.0
2018-Feb-20 16:29N 44°10' E 028°40'0 0.0
2018-Feb-20 15:59N 44°10' E 028°40'0 0.3
2018-Feb-20 15:31N 44°09' E 028°40'1 1.4
2018-Feb-20 15:00N 44°09' E 028°39'1 1.4
2018-Feb-20 14:26N 44°10' E 028°40'0 0.0
2018-Feb-20 13:56N 44°10' E 028°40'2 3.6
2018-Feb-20 13:30N 44°08' E 028°41'3 5.7
2018-Feb-20 13:00N 44°06' E 028°43'4 7.8
2018-Feb-20 12:30N 44°09' E 028°40'1 0.8
2018-Feb-20 11:49N 44°10' E 028°40'0 0.0
2018-Feb-20 11:28N 44°10' E 028°40'0 0.0
2018-Feb-20 10:58N 44°10' E 028°40'0 0.0
2018-Feb-20 10:28N 44°10' E 028°40'0 0.0
2018-Feb-20 09:58N 44°10' E 028°40'0 0.0
2018-Feb-20 09:28N 44°10' E 028°40'0 0.0
2018-Feb-20 08:58N 44°10' E 028°40'0 0.0
2018-Feb-20 08:25N 44°10' E 028°40'0 0.0
2018-Feb-20 07:58N 44°10' E 028°40'0 0.0
2018-Feb-20 07:28N 44°10' E 028°40'0 0.8
2018-Feb-20 06:58N 44°10' E 028°39'1 2.4
2018-Feb-20 06:30N 44°09' E 028°40'1 1.5
2018-Feb-20 05:59N 44°10' E 028°40'0 0.0
2018-Feb-20 05:29N 44°10' E 028°40'0 0.0
2018-Feb-20 04:59N 44°10' E 028°40'0 0.0
2018-Feb-20 04:29N 44°10' E 028°40'0 0.0
2018-Feb-20 03:59N 44°10' E 028°40'0 0.0
2018-Feb-20 03:29N 44°10' E 028°40'0 0.0
2018-Feb-20 02:59N 44°10' E 028°40'0 0.0
2018-Feb-20 02:23N 44°10' E 028°40'0 0.0
2018-Feb-20 01:59N 44°10' E 028°40'0 0.0
2018-Feb-20 01:29N 44°10' E 028°40'0 0.0
2018-Feb-20 00:56N 44°10' E 028°40'0 0.0
2018-Feb-20 00:26N 44°10' E 028°40'0 0.0
2018-Feb-19 23:59N 44°10' E 028°40'0 0.0
2018-Feb-19 23:29N 44°10' E 028°40'0 0.0
2018-Feb-19 22:59N 44°10' E 028°40'0 0.0
2018-Feb-19 22:29N 44°10' E 028°40'0 0.0
2018-Feb-19 21:59N 44°10' E 028°40'0 0.0
2018-Feb-19 21:23N 44°10' E 028°40'0 0.0
2018-Feb-19 20:59N 44°10' E 028°40'0 0.0
2018-Feb-19 20:29N 44°10' E 028°40'0 0.0
2018-Feb-19 19:59N 44°10' E 028°40'0 0.0
2018-Feb-19 19:29N 44°10' E 028°40'0 0.0
2018-Feb-19 18:59N 44°10' E 028°40'0 0.0
2018-Feb-19 18:29N 44°10' E 028°40'0 0.0
2018-Feb-19 17:59N 44°10' E 028°40'0 0.0
2018-Feb-19 17:26N 44°10' E 028°40'0 0.0
2018-Feb-19 16:59N 44°10' E 028°40'0 0.0
2018-Feb-19 16:29N 44°10' E 028°40'0 0.0
2018-Feb-19 15:59N 44°10' E 028°40'0 0.0
2018-Feb-19 15:29N 44°10' E 028°40'0 0.0
2018-Feb-19 14:59N 44°10' E 028°40'1 1.6
2018-Feb-19 14:30N 44°09' E 028°39'0 0.6
2018-Feb-19 14:00N 44°09' E 028°39'1 1.0
2018-Feb-19 13:28N 44°10' E 028°40'0 0.0
2018-Feb-19 12:58N 44°10' E 028°40'0 0.0
2018-Feb-19 12:28N 44°10' E 028°40'0 0.0
2018-Feb-19 11:58N 44°10' E 028°40'0 0.0
2018-Feb-19 11:28N 44°10' E 028°40'0 0.0
2018-Feb-19 10:58N 44°10' E 028°40'0 0.0
2018-Feb-19 10:28N 44°10' E 028°40'0 0.0
2018-Feb-19 09:58N 44°10' E 028°40'0 0.0
2018-Feb-19 09:25N 44°10' E 028°40'0 0.0
2018-Feb-19 08:58N 44°10' E 028°40'0 0.0
2018-Feb-19 08:22N 44°10' E 028°40'0 0.0
2018-Feb-19 07:58N 44°10' E 028°40'0 0.0
2018-Feb-19 07:28N 44°10' E 028°40'0 0.0
2018-Feb-19 06:58N 44°10' E 028°40'0 0.0
2018-Feb-19 06:25N 44°10' E 028°40'0 0.0
2018-Feb-19 05:58N 44°10' E 028°40'0 0.0
2018-Feb-19 05:28N 44°10' E 028°40'0 0.0
2018-Feb-19 04:55N 44°10' E 028°40'0 0.0
2018-Feb-19 04:28N 44°10' E 028°40'0 0.0
2018-Feb-19 03:58N 44°10' E 028°40'0 0.0
2018-Feb-19 03:28N 44°10' E 028°40'0 0.0
2018-Feb-19 02:58N 44°10' E 028°40'0 0.0
2018-Feb-19 02:28N 44°10' E 028°40'0 0.0
2018-Feb-19 01:58N 44°10' E 028°40'0 0.0
2018-Feb-19 01:25N 44°10' E 028°40'0 0.0
2018-Feb-19 00:58N 44°10' E 028°40'0 0.0
2018-Feb-19 00:28N 44°10' E 028°40'0 0.0
2018-Feb-18 23:58N 44°10' E 028°40'0 0.0
2018-Feb-18 23:28N 44°10' E 028°40'0 0.0
2018-Feb-18 22:58N 44°10' E 028°40'0 0.0
2018-Feb-18 22:28N 44°10' E 028°40'0 0.0
2018-Feb-18 21:58N 44°10' E 028°40'0 0.0
2018-Feb-18 21:28N 44°10' E 028°40'0 0.0
2018-Feb-18 20:55N 44°10' E 028°40'0 0.0
2018-Feb-18 20:28N 44°10' E 028°40'0 0.0
2018-Feb-18 19:58N 44°10' E 028°40'0 0.0
2018-Feb-18 19:28N 44°10' E 028°40'0 0.0
2018-Feb-18 18:58N 44°10' E 028°40'0 0.0
2018-Feb-18 18:25N 44°10' E 028°40'0 0.0
2018-Feb-18 17:58N 44°10' E 028°40'0 0.0
2018-Feb-18 17:28N 44°10' E 028°40'0 0.0
2018-Feb-18 16:58N 44°10' E 028°40'0 0.0
2018-Feb-18 16:28N 44°10' E 028°40'0 0.0
2018-Feb-18 15:58N 44°10' E 028°40'0 0.0
2018-Feb-18 15:28N 44°10' E 028°40'0 0.0
2018-Feb-18 14:58N 44°10' E 028°40'1 1.4
2018-Feb-18 14:30N 44°09' E 028°39'0 0.1
2018-Feb-18 13:54N 44°09' E 028°39'1 1.8
2018-Feb-18 13:29N 44°09' E 028°40'0 0.4
2018-Feb-18 13:00N 44°09' E 028°40'1 1.2
2018-Feb-18 12:27N 44°10' E 028°40'0 0.6
2018-Feb-18 12:00N 44°10' E 028°39'0 0.4
2018-Feb-18 11:28N 44°10' E 028°39'0 0.1
2018-Feb-18 11:01N 44°10' E 028°39'0 0.7
2018-Feb-18 10:28N 44°10' E 028°40'0 0.0
2018-Feb-18 09:58N 44°10' E 028°40'0 0.0
2018-Feb-18 09:28N 44°10' E 028°40'0 0.0
2018-Feb-18 08:58N 44°10' E 028°40'0 0.0
2018-Feb-18 08:28N 44°10' E 028°40'0 0.0
2018-Feb-18 07:58N 44°10' E 028°40'0 0.0
2018-Feb-18 07:28N 44°10' E 028°40'0 0.0
2018-Feb-18 06:58N 44°10' E 028°40'0 0.0
2018-Feb-18 06:28N 44°10' E 028°40'0 0.0
2018-Feb-18 05:58N 44°10' E 028°40'0 0.0
2018-Feb-18 05:28N 44°10' E 028°40'0 0.0
2018-Feb-18 04:58N 44°10' E 028°40'0 0.0
2018-Feb-18 04:28N 44°10' E 028°40'0 0.0
2018-Feb-18 03:58N 44°10' E 028°40'0 0.0
2018-Feb-18 03:28N 44°10' E 028°40'0 0.0
2018-Feb-18 02:58N 44°10' E 028°40'0 0.0
2018-Feb-18 02:28N 44°10' E 028°40'0 0.0
2018-Feb-18 01:58N 44°10' E 028°40'0 0.0
2018-Feb-18 01:28N 44°10' E 028°40'0 0.0
2018-Feb-18 00:58N 44°10' E 028°40'0 0.0
2018-Feb-18 00:28N 44°10' E 028°40'0 0.0
2018-Feb-17 23:55N 44°10' E 028°40'0 0.0
2018-Feb-17 23:28N 44°10' E 028°40'0 0.0
2018-Feb-17 22:58N 44°10' E 028°40'0 0.0
2018-Feb-17 22:28N 44°10' E 028°40'0 0.0
2018-Feb-17 21:58N 44°10' E 028°40'0 0.0
2018-Feb-17 21:28N 44°10' E 028°40'0 0.0
2018-Feb-17 20:58N 44°10' E 028°40'0 0.0
2018-Feb-17 20:28N 44°10' E 028°40'0 0.0
2018-Feb-17 19:58N 44°10' E 028°40'0 0.0
2018-Feb-17 19:28N 44°10' E 028°40'0 0.0
2018-Feb-17 18:58N 44°10' E 028°40'0 0.0
2018-Feb-17 18:28N 44°10' E 028°40'0 0.0
2018-Feb-17 17:58N 44°10' E 028°40'0 0.0
2018-Feb-17 17:28N 44°10' E 028°40'0 0.0
2018-Feb-17 16:58N 44°10' E 028°40'0 0.0
2018-Feb-17 16:28N 44°10' E 028°40'0 0.0
2018-Feb-17 15:58N 44°10' E 028°40'0 0.0
2018-Feb-17 15:28N 44°10' E 028°40'0 0.0
2018-Feb-17 14:58N 44°10' E 028°40'0 0.0
2018-Feb-17 14:28N 44°10' E 028°40'0 0.0
2018-Feb-17 13:58N 44°10' E 028°40'0 0.0
2018-Feb-17 13:28N 44°10' E 028°40'0 0.0
2018-Feb-17 12:58N 44°10' E 028°40'0 0.0
2018-Feb-17 12:30N 44°10' E 028°40'1 1.1
2018-Feb-17 12:00N 44°09' E 028°39'0 0.2
2018-Feb-17 11:28N 44°09' E 028°39'1 2.6
2018-Feb-17 11:00N 44°08' E 028°40'1 2.3
2018-Feb-17 10:26N 44°10' E 028°40'1 1.2
2018-Feb-17 10:00N 44°09' E 028°40'0 0.9
2018-Feb-17 09:30N 44°09' E 028°39'0 1.0
2018-Feb-17 09:00N 44°10' E 028°40'0 0.0
2018-Feb-17 08:30N 44°10' E 028°40'0 0.0
2018-Feb-17 08:00N 44°10' E 028°40'0 0.0
2018-Feb-17 07:30N 44°10' E 028°40'0 0.0
2018-Feb-17 07:00N 44°10' E 028°40'0 0.0
2018-Feb-17 06:30N 44°10' E 028°40'0 0.0
2018-Feb-17 06:00N 44°10' E 028°40'0 0.0
2018-Feb-17 05:30N 44°10' E 028°40'0 0.0
2018-Feb-17 05:00N 44°10' E 028°40'0 0.0
2018-Feb-17 04:30N 44°10' E 028°40'0 0.0
2018-Feb-17 04:00N 44°10' E 028°40'0 0.0
2018-Feb-17 03:30N 44°10' E 028°40'0 0.0
2018-Feb-17 03:00N 44°10' E 028°40'1 1.5
2018-Feb-17 02:30N 44°09' E 028°40'0 0.0
2018-Feb-17 01:58N 44°09' E 028°40'0 0.5
2018-Feb-17 01:30N 44°09' E 028°40'1 1.3
2018-Feb-17 00:59N 44°10' E 028°40'0 0.0
2018-Feb-17 00:29N 44°10' E 028°40'0 0.0
2018-Feb-16 23:59N 44°10' E 028°40'0 0.0
2018-Feb-16 23:29N 44°10' E 028°40'0 0.0
2018-Feb-16 22:59N 44°10' E 028°40'0 0.0
2018-Feb-16 22:29N 44°10' E 028°40'0 0.0
2018-Feb-16 21:59N 44°10' E 028°40'0 0.0
2018-Feb-16 21:29N 44°10' E 028°40'0 0.0
2018-Feb-16 20:59N 44°10' E 028°40'0 0.0
2018-Feb-16 20:29N 44°10' E 028°40'0 0.0
2018-Feb-16 19:59N 44°10' E 028°40'0 0.0
2018-Feb-16 19:29N 44°10' E 028°40'0 0.0
2018-Feb-16 18:59N 44°10' E 028°40'0 0.0
2018-Feb-16 18:29N 44°10' E 028°40'0 0.0
2018-Feb-16 17:59N 44°10' E 028°40'0 0.0
2018-Feb-16 17:29N 44°10' E 028°40'0 0.0
2018-Feb-16 16:59N 44°10' E 028°40'0 0.0
2018-Feb-16 16:23N 44°10' E 028°40'1 2.1
2018-Feb-16 16:00N 44°09' E 028°39'0 0.9
2018-Feb-16 15:30N 44°09' E 028°39'2 4.2
2018-Feb-16 15:00N 44°07' E 028°41'1 2.2
2018-Feb-16 14:28N 44°06' E 028°40'0 0.3
2018-Feb-16 14:00N 44°06' E 028°39'0 0.6
2018-Feb-16 13:30N 44°06' E 028°39'0 0.0
2018-Feb-16 13:00N 44°06' E 028°39'0 0.0
2018-Feb-16 12:30N 44°06' E 028°39'0 0.0
2018-Feb-16 12:00N 44°06' E 028°39'0 0.0
2018-Feb-16 11:30N 44°06' E 028°39'0 0.0
2018-Feb-16 11:00N 44°06' E 028°39'0 0.3
2018-Feb-16 10:30N 44°06' E 028°39'1 1.6
2018-Feb-16 09:59N 44°06' E 028°41'0 0.9
2018-Feb-16 09:30N 44°07' E 028°41'2 4.1
2018-Feb-16 09:00N 44°08' E 028°40'1 2.5
2018-Feb-16 08:30N 44°10' E 028°40'0 0.0
2018-Feb-16 08:00N 44°10' E 028°40'0 0.0
2018-Feb-16 07:30N 44°10' E 028°40'0 0.0
2018-Feb-16 07:00N 44°10' E 028°40'0 0.0
2018-Feb-16 06:30N 44°10' E 028°40'0 0.0
2018-Feb-16 06:00N 44°10' E 028°40'0 0.0
2018-Feb-16 05:30N 44°10' E 028°40'0 0.0
2018-Feb-16 04:54N 44°10' E 028°40'0 0.0
2018-Feb-16 04:30N 44°10' E 028°40'0 0.0
2018-Feb-16 04:00N 44°10' E 028°40'0 0.0
2018-Feb-16 03:30N 44°10' E 028°40'0 0.0
2018-Feb-16 03:00N 44°10' E 028°40'0 0.0
2018-Feb-16 02:30N 44°10' E 028°40'0 0.0
2018-Feb-16 02:00N 44°10' E 028°40'0 0.0
2018-Feb-16 01:30N 44°10' E 028°40'0 0.0
2018-Feb-16 01:00N 44°10' E 028°40'0 0.0
2018-Feb-16 00:30N 44°10' E 028°40'0 0.0
2018-Feb-16 00:00N 44°10' E 028°40'0 0.0
2018-Feb-15 23:30N 44°10' E 028°40'0 0.0
2018-Feb-15 23:00N 44°10' E 028°40'0 0.0
2018-Feb-15 22:30N 44°10' E 028°40'0 0.0
2018-Feb-15 22:00N 44°10' E 028°40'  
Track history (hours):
 
Tides and Currents Weather Stations Pressure Air Temp Water Temp Dewpoint Dewpoint Depression Visibility Wind Speed Wind Dir Waves Ship Positions

Galati 6

Last reported at 2018-Feb-25 21:30 UTC. Time now 2018-Feb-25 21:57 UTC.
Position N 44°10' E 028°40'.

Length 36 m; draft 3.5 m.

Type: Tug. MMSI: 264900047.

Date/timePositionNaut miles runAvg speedWind from/ knotsBaromVisibWave heightAir tempDewpointWater temp
2018-Feb-25 21:30N 44°10' E 028°40'0 0.0
2018-Feb-25 21:00N 44°10' E 028°40'0 0.0
2018-Feb-25 20:27N 44°10' E 028°40'0 0.0
2018-Feb-25 20:00N 44°10' E 028°40'0 0.0
2018-Feb-25 19:30N 44°10' E 028°40'0 0.0
2018-Feb-25 18:57N 44°10' E 028°40'0 0.0
2018-Feb-25 18:30N 44°10' E 028°40'0 0.0
2018-Feb-25 18:00N 44°10' E 028°40'0 0.0
2018-Feb-25 17:30N 44°10' E 028°40'0 0.0
2018-Feb-25 17:00N 44°10' E 028°40'0 0.0
2018-Feb-25 16:30N 44°10' E 028°40'0 0.0
2018-Feb-25 16:00N 44°10' E 028°40'0 0.0
2018-Feb-25 15:30N 44°10' E 028°40'0 0.0
2018-Feb-25 15:00N 44°10' E 028°40'0 0.0
2018-Feb-25 14:30N 44°10' E 028°40'0 0.0
2018-Feb-25 14:00N 44°10' E 028°40'0 0.0
2018-Feb-25 13:27N 44°10' E 028°40'0 0.0
2018-Feb-25 13:00N 44°10' E 028°40'0 0.5
2018-Feb-25 12:30N 44°09' E 028°40'3 6.3
2018-Feb-25 12:00N 44°07' E 028°42'3 5.5
2018-Feb-25 11:30N 44°09' E 028°44'510.0
2018-Feb-25 11:00N 44°14' E 028°43'510.1
2018-Feb-25 10:30N 44°19' E 028°42'1 2.6
2018-Feb-25 09:59N 44°20' E 028°40'0 0.2
2018-Feb-25 09:28N 44°20' E 028°40'1 1.4
2018-Feb-25 08:59N 44°20' E 028°41'0 0.6
2018-Feb-25 08:30N 44°21' E 028°41'0 0.0
2018-Feb-25 08:00N 44°21' E 028°41'0 0.0
2018-Feb-25 07:21N 44°21' E 028°41'0 0.0
2018-Feb-25 06:45N 44°21' E 028°41'0 0.0
2018-Feb-25 06:15N 44°21' E 028°41'0 0.0
2018-Feb-25 06:00N 44°21' E 028°41'0 0.0
2018-Feb-25 05:30N 44°21' E 028°41'0 0.0
2018-Feb-25 05:00N 44°21' E 028°41'0 0.0
2018-Feb-25 04:30N 44°21' E 028°41'0 0.0
2018-Feb-25 04:00N 44°21' E 028°41'0 0.0
2018-Feb-25 03:30N 44°21' E 028°41'0 0.0
2018-Feb-25 03:00N 44°21' E 028°41'0 0.0
2018-Feb-25 02:30N 44°21' E 028°41'0 0.0
2018-Feb-25 02:00N 44°21' E 028°41'0 0.0
2018-Feb-25 01:30N 44°21' E 028°41'0 0.0
2018-Feb-25 00:57N 44°21' E 028°41'0 0.0
2018-Feb-25 00:30N 44°21' E 028°41'0 0.0
2018-Feb-25 00:00N 44°21' E 028°41'0 0.0
2018-Feb-24 23:30N 44°21' E 028°41'0 0.0
2018-Feb-24 23:00N 44°21' E 028°41'0 0.0
2018-Feb-24 22:30N 44°21' E 028°41'0 0.0
2018-Feb-24 22:00N 44°21' E 028°41'0 0.0
2018-Feb-24 21:30N 44°21' E 028°41'0 0.0
2018-Feb-24 21:00N 44°21' E 028°41'0 0.0
2018-Feb-24 20:30N 44°21' E 028°41'0 0.0
2018-Feb-24 19:54N 44°21' E 028°41'0 0.0
2018-Feb-24 19:27N 44°21' E 028°41'0 0.0
2018-Feb-24 19:00N 44°21' E 028°41'0 0.0
2018-Feb-24 18:30N 44°21' E 028°41'0 0.0
2018-Feb-24 18:00N 44°21' E 028°41'0 0.0
2018-Feb-24 17:30N 44°21' E 028°41'0 0.0
2018-Feb-24 16:57N 44°21' E 028°41'0 0.0
2018-Feb-24 16:30N 44°21' E 028°41'0 0.0
2018-Feb-24 15:57N 44°21' E 028°41'1 3.2
2018-Feb-24 15:30N 44°19' E 028°42'4 8.3
2018-Feb-24 15:00N 44°15' E 028°41'4 8.1
2018-Feb-24 14:30N 44°11' E 028°42'4 7.8
2018-Feb-24 14:00N 44°07' E 028°43'1 2.7
2018-Feb-24 13:30N 44°08' E 028°41'2 4.0
2018-Feb-24 12:58N 44°10' E 028°40'0 0.0
2018-Feb-24 12:28N 44°10' E 028°40'0 0.0
2018-Feb-24 11:58N 44°10' E 028°40'0 0.0
2018-Feb-24 11:28N 44°10' E 028°40'0 0.0
2018-Feb-24 10:58N 44°10' E 028°40'0 0.0
2018-Feb-24 10:28N 44°10' E 028°40'0 0.0
2018-Feb-24 09:58N 44°10' E 028°40'0 0.0
2018-Feb-24 09:28N 44°10' E 028°40'0 0.0
2018-Feb-24 08:58N 44°10' E 028°40'0 0.0
2018-Feb-24 08:28N 44°10' E 028°40'0 0.0
2018-Feb-24 07:58N 44°10' E 028°40'0 0.0
2018-Feb-24 07:28N 44°10' E 028°40'0 0.0
2018-Feb-24 06:55N 44°10' E 028°40'0 0.0
2018-Feb-24 06:28N 44°10' E 028°40'0 0.0
2018-Feb-24 05:58N 44°10' E 028°40'0 0.0
2018-Feb-24 05:28N 44°10' E 028°40'0 0.0
2018-Feb-24 04:58N 44°10' E 028°40'0 0.0
2018-Feb-24 04:28N 44°10' E 028°40'0 0.0
2018-Feb-24 03:58N 44°10' E 028°40'0 0.0
2018-Feb-24 03:28N 44°10' E 028°40'0 0.0
2018-Feb-24 02:55N 44°10' E 028°40'0 0.0
2018-Feb-24 02:28N 44°10' E 028°40'0 0.0
2018-Feb-24 01:55N 44°10' E 028°40'0 0.0
2018-Feb-24 01:28N 44°10' E 028°40'0 0.0
2018-Feb-24 00:58N 44°10' E 028°40'0 0.0
2018-Feb-24 00:28N 44°10' E 028°40'0 0.0
2018-Feb-23 23:58N 44°10' E 028°40'0 0.0
2018-Feb-23 23:28N 44°10' E 028°40'0 0.0
2018-Feb-23 22:58N 44°10' E 028°40'0 0.0
2018-Feb-23 22:30N 44°10' E 028°40'1 1.3
2018-Feb-23 21:59N 44°09' E 028°39'1 1.6
2018-Feb-23 21:30N 44°09' E 028°40'1 1.4
2018-Feb-23 21:00N 44°10' E 028°40'0 0.0
2018-Feb-23 20:30N 44°10' E 028°40'0 0.0
2018-Feb-23 19:57N 44°10' E 028°40'0 0.0
2018-Feb-23 19:24N 44°10' E 028°40'0 0.0
2018-Feb-23 19:00N 44°10' E 028°40'0 0.0
2018-Feb-23 18:30N 44°10' E 028°40'0 0.0
2018-Feb-23 18:00N 44°10' E 028°40'0 0.0
2018-Feb-23 17:30N 44°10' E 028°40'0 0.0
2018-Feb-23 17:00N 44°10' E 028°40'0 0.0
2018-Feb-23 16:27N 44°10' E 028°40'0 0.0
2018-Feb-23 16:00N 44°10' E 028°40'0 0.0
2018-Feb-23 15:30N 44°10' E 028°40'0 0.0
2018-Feb-23 14:57N 44°10' E 028°40'0 0.0
2018-Feb-23 14:27N 44°10' E 028°40'0 0.0
2018-Feb-23 14:00N 44°10' E 028°40'0 0.0
2018-Feb-23 13:30N 44°10' E 028°40'0 0.0
2018-Feb-23 13:00N 44°10' E 028°40'0 0.0
2018-Feb-23 12:30N 44°10' E 028°40'0 0.0
2018-Feb-23 12:00N 44°10' E 028°40'0 0.0
2018-Feb-23 11:30N 44°10' E 028°40'0 0.0
2018-Feb-23 11:00N 44°10' E 028°40'0 0.0
2018-Feb-23 10:30N 44°10' E 028°40'0 0.0
2018-Feb-23 10:00N 44°10' E 028°40'0 0.0
2018-Feb-23 09:30N 44°10' E 028°40'0 0.0
2018-Feb-23 09:00N 44°10' E 028°40'0 0.0
2018-Feb-23 08:30N 44°10' E 028°40'0 0.0
2018-Feb-23 07:57N 44°10' E 028°40'0 0.0
2018-Feb-23 07:30N 44°10' E 028°40'0 0.0
2018-Feb-23 06:54N 44°10' E 028°40'0 0.0
2018-Feb-23 06:30N 44°10' E 028°40'0 0.0
2018-Feb-23 06:00N 44°10' E 028°40'0 0.0
2018-Feb-23 05:30N 44°10' E 028°40'0 0.0
2018-Feb-23 05:00N 44°10' E 028°40'0 0.0
2018-Feb-23 04:30N 44°10' E 028°40'0 0.0
2018-Feb-23 04:00N 44°10' E 028°40'0 0.0
2018-Feb-23 03:30N 44°10' E 028°40'0 0.0
2018-Feb-23 03:00N 44°10' E 028°40'0 0.0
2018-Feb-23 02:30N 44°10' E 028°40'0 0.0
2018-Feb-23 02:00N 44°10' E 028°40'0 0.0
2018-Feb-23 01:30N 44°10' E 028°40'0 0.0
2018-Feb-23 01:00N 44°10' E 028°40'0 0.0
2018-Feb-23 00:30N 44°10' E 028°40'0 0.0
2018-Feb-23 00:00N 44°10' E 028°40'0 0.0
2018-Feb-22 23:27N 44°10' E 028°40'0 0.0
2018-Feb-22 23:00N 44°10' E 028°40'1 1.3
2018-Feb-22 22:28N 44°09' E 028°40'0 0.5
2018-Feb-22 21:59N 44°09' E 028°40'1 1.4
2018-Feb-22 21:30N 44°09' E 028°40'1 2.2
2018-Feb-22 21:00N 44°10' E 028°40'0 0.0
2018-Feb-22 20:30N 44°10' E 028°40'0 0.0
2018-Feb-22 20:00N 44°10' E 028°40'0 0.0
2018-Feb-22 19:30N 44°10' E 028°40'0 0.0
2018-Feb-22 19:00N 44°10' E 028°40'0 0.0
2018-Feb-22 18:30N 44°10' E 028°40'0 0.0
2018-Feb-22 18:00N 44°10' E 028°40'0 0.0
2018-Feb-22 17:30N 44°10' E 028°40'0 0.0
2018-Feb-22 17:00N 44°10' E 028°40'0 0.0
2018-Feb-22 16:30N 44°10' E 028°40'0 0.0
2018-Feb-22 16:00N 44°10' E 028°40'0 0.0
2018-Feb-22 15:30N 44°10' E 028°40'0 0.0
2018-Feb-22 15:00N 44°10' E 028°40'0 0.0
2018-Feb-22 14:30N 44°10' E 028°40'0 0.0
2018-Feb-22 14:00N 44°10' E 028°40'0 0.0
2018-Feb-22 13:30N 44°10' E 028°40'0 0.0
2018-Feb-22 13:00N 44°10' E 028°40'0 0.0
2018-Feb-22 12:30N 44°10' E 028°40'0 0.0
2018-Feb-22 11:54N 44°10' E 028°40'0 0.0
2018-Feb-22 11:30N 44°10' E 028°40'0 0.0
2018-Feb-22 11:00N 44°10' E 028°40'0 0.0
2018-Feb-22 10:30N 44°10' E 028°40'0 0.0
2018-Feb-22 10:00N 44°10' E 028°40'0 0.0
2018-Feb-22 09:18N 44°10' E 028°40'0 0.0
2018-Feb-22 09:00N 44°10' E 028°40'0 0.0
2018-Feb-22 08:30N 44°10' E 028°40'0 0.0
2018-Feb-22 08:00N 44°10' E 028°40'0 0.0
2018-Feb-22 07:30N 44°10' E 028°40'0 0.0
2018-Feb-22 06:54N 44°10' E 028°40'0 0.0
2018-Feb-22 06:30N 44°10' E 028°40'0 0.0
2018-Feb-22 06:00N 44°10' E 028°40'0 0.0
2018-Feb-22 05:30N 44°10' E 028°40'0 0.9
2018-Feb-22 05:00N 44°09' E 028°40'0 0.9
2018-Feb-22 04:30N 44°09' E 028°40'0 0.1
2018-Feb-22 04:00N 44°09' E 028°40'1 1.5
2018-Feb-22 03:29N 44°10' E 028°40'0 0.0
2018-Feb-22 02:59N 44°10' E 028°40'0 0.0
2018-Feb-22 02:29N 44°10' E 028°40'0 0.0
2018-Feb-22 01:59N 44°10' E 028°40'0 0.0
2018-Feb-22 01:29N 44°10' E 028°40'0 0.0
2018-Feb-22 00:59N 44°10' E 028°40'0 0.0
2018-Feb-22 00:29N 44°10' E 028°40'0 0.0
2018-Feb-21 23:56N 44°10' E 028°40'0 0.0
2018-Feb-21 23:29N 44°10' E 028°40'0 0.0
2018-Feb-21 22:59N 44°10' E 028°40'0 0.0
2018-Feb-21 22:29N 44°10' E 028°40'0 0.0
2018-Feb-21 21:59N 44°10' E 028°40'0 0.0
2018-Feb-21 21:29N 44°10' E 028°40'0 0.0
2018-Feb-21 20:56N 44°10' E 028°40'0 0.0
2018-Feb-21 20:26N 44°10' E 028°40'0 0.0
2018-Feb-21 19:59N 44°10' E 028°40'0 0.0
2018-Feb-21 19:29N 44°10' E 028°40'0 0.0
2018-Feb-21 18:59N 44°10' E 028°40'0 0.0
2018-Feb-21 18:29N 44°10' E 028°40'0 0.0
2018-Feb-21 17:56N 44°10' E 028°40'0 0.0
2018-Feb-21 17:29N 44°10' E 028°40'0 0.0
2018-Feb-21 16:59N 44°10' E 028°40'0 0.0
2018-Feb-21 16:29N 44°10' E 028°40'0 0.0
2018-Feb-21 15:59N 44°10' E 028°40'0 0.0
2018-Feb-21 15:29N 44°10' E 028°40'1 0.8
2018-Feb-21 14:53N 44°10' E 028°39'1 1.4
2018-Feb-21 14:30N 44°10' E 028°40'0 0.0
2018-Feb-21 14:00N 44°10' E 028°40'0 0.0
2018-Feb-21 13:30N 44°10' E 028°40'0 0.0
2018-Feb-21 13:00N 44°10' E 028°40'0 0.0
2018-Feb-21 12:30N 44°10' E 028°40'0 0.0
2018-Feb-21 12:00N 44°10' E 028°40'0 0.0
2018-Feb-21 11:30N 44°10' E 028°40'0 0.0
2018-Feb-21 11:00N 44°10' E 028°40'0 0.0
2018-Feb-21 10:30N 44°10' E 028°40'0 0.0
2018-Feb-21 10:00N 44°10' E 028°40'0 0.0
2018-Feb-21 09:30N 44°10' E 028°40'0 0.0
2018-Feb-21 09:00N 44°10' E 028°40'0 0.0
2018-Feb-21 08:30N 44°10' E 028°40'0 0.0
2018-Feb-21 08:00N 44°10' E 028°40'0 0.1
2018-Feb-21 07:23N 44°10' E 028°40'0 0.1
2018-Feb-21 06:58N 44°10' E 028°40'0 0.1
2018-Feb-21 06:28N 44°10' E 028°40'0 0.0
2018-Feb-21 05:58N 44°10' E 028°40'0 0.0
2018-Feb-21 05:28N 44°10' E 028°40'0 0.0
2018-Feb-21 04:58N 44°10' E 028°40'1 2.4
2018-Feb-21 04:30N 44°09' E 028°40'0 0.9
2018-Feb-21 04:00N 44°09' E 028°39'1 2.0
2018-Feb-21 03:30N 44°10' E 028°40'0 0.1
2018-Feb-21 02:59N 44°10' E 028°40'0 0.0
2018-Feb-21 02:29N 44°10' E 028°40'0 0.0
2018-Feb-21 01:59N 44°10' E 028°40'0 0.0
2018-Feb-21 01:26N 44°10' E 028°40'0 0.0
2018-Feb-21 01:00N 44°10' E 028°40'0 0.0
2018-Feb-21 00:29N 44°10' E 028°40'0 0.0
2018-Feb-20 23:59N 44°10' E 028°40'0 0.0
2018-Feb-20 23:26N 44°10' E 028°40'0 0.0
2018-Feb-20 22:59N 44°10' E 028°40'0 0.0
2018-Feb-20 22:29N 44°10' E 028°40'0 0.0
2018-Feb-20 21:59N 44°10' E 028°40'0 0.0
2018-Feb-20 21:29N 44°10' E 028°40'0 0.0
2018-Feb-20 20:59N 44°10' E 028°40'0 0.0
2018-Feb-20 20:29N 44°10' E 028°40'0 0.0
2018-Feb-20 19:59N 44°10' E 028°40'0 0.0
2018-Feb-20 19:29N 44°10' E 028°40'0 0.0
2018-Feb-20 18:59N 44°10' E 028°40'0 0.0
2018-Feb-20 18:29N 44°10' E 028°40'0 0.0
2018-Feb-20 17:59N 44°10' E 028°40'0 0.0
2018-Feb-20 17:29N 44°10' E 028°40'0 0.0
2018-Feb-20 16:59N 44°10' E 028°40'0 0.0
2018-Feb-20 16:29N 44°10' E 028°40'0 0.0
2018-Feb-20 15:59N 44°10' E 028°40'0 0.3
2018-Feb-20 15:31N 44°09' E 028°40'1 1.4
2018-Feb-20 15:00N 44°09' E 028°39'1 1.4
2018-Feb-20 14:26N 44°10' E 028°40'0 0.0
2018-Feb-20 13:56N 44°10' E 028°40'2 3.6
2018-Feb-20 13:30N 44°08' E 028°41'3 5.7
2018-Feb-20 13:00N 44°06' E 028°43'4 7.8
2018-Feb-20 12:30N 44°09' E 028°40'1 0.8
2018-Feb-20 11:49N 44°10' E 028°40'0 0.0
2018-Feb-20 11:28N 44°10' E 028°40'0 0.0
2018-Feb-20 10:58N 44°10' E 028°40'0 0.0
2018-Feb-20 10:28N 44°10' E 028°40'0 0.0
2018-Feb-20 09:58N 44°10' E 028°40'0 0.0
2018-Feb-20 09:28N 44°10' E 028°40'0 0.0
2018-Feb-20 08:58N 44°10' E 028°40'0 0.0
2018-Feb-20 08:25N 44°10' E 028°40'0 0.0
2018-Feb-20 07:58N 44°10' E 028°40'0 0.0
2018-Feb-20 07:28N 44°10' E 028°40'0 0.8
2018-Feb-20 06:58N 44°10' E 028°39'1 2.4
2018-Feb-20 06:30N 44°09' E 028°40'1 1.5
2018-Feb-20 05:59N 44°10' E 028°40'0 0.0
2018-Feb-20 05:29N 44°10' E 028°40'0 0.0
2018-Feb-20 04:59N 44°10' E 028°40'0 0.0
2018-Feb-20 04:29N 44°10' E 028°40'0 0.0
2018-Feb-20 03:59N 44°10' E 028°40'0 0.0
2018-Feb-20 03:29N 44°10' E 028°40'0 0.0
2018-Feb-20 02:59N 44°10' E 028°40'0 0.0
2018-Feb-20 02:23N 44°10' E 028°40'0 0.0
2018-Feb-20 01:59N 44°10' E 028°40'0 0.0
2018-Feb-20 01:29N 44°10' E 028°40'0 0.0
2018-Feb-20 00:56N 44°10' E 028°40'0 0.0
2018-Feb-20 00:26N 44°10' E 028°40'0 0.0
2018-Feb-19 23:59N 44°10' E 028°40'0 0.0
2018-Feb-19 23:29N 44°10' E 028°40'0 0.0
2018-Feb-19 22:59N 44°10' E 028°40'0 0.0
2018-Feb-19 22:29N 44°10' E 028°40'0 0.0
2018-Feb-19 21:59N 44°10' E 028°40'0 0.0
2018-Feb-19 21:23N 44°10' E 028°40'0 0.0
2018-Feb-19 20:59N 44°10' E 028°40'0 0.0
2018-Feb-19 20:29N 44°10' E 028°40'0 0.0
2018-Feb-19 19:59N 44°10' E 028°40'0 0.0
2018-Feb-19 19:29N 44°10' E 028°40'0 0.0
2018-Feb-19 18:59N 44°10' E 028°40'0 0.0
2018-Feb-19 18:29N 44°10' E 028°40'0 0.0
2018-Feb-19 17:59N 44°10' E 028°40'0 0.0
2018-Feb-19 17:26N 44°10' E 028°40'0 0.0
2018-Feb-19 16:59N 44°10' E 028°40'0 0.0
2018-Feb-19 16:29N 44°10' E 028°40'0 0.0
2018-Feb-19 15:59N 44°10' E 028°40'0 0.0
2018-Feb-19 15:29N 44°10' E 028°40'0 0.0
2018-Feb-19 14:59N 44°10' E 028°40'1 1.6
2018-Feb-19 14:30N 44°09' E 028°39'0 0.6
2018-Feb-19 14:00N 44°09' E 028°39'1 1.0
2018-Feb-19 13:28N 44°10' E 028°40'0 0.0
2018-Feb-19 12:58N 44°10' E 028°40'0 0.0
2018-Feb-19 12:28N 44°10' E 028°40'0 0.0
2018-Feb-19 11:58N 44°10' E 028°40'0 0.0
2018-Feb-19 11:28N 44°10' E 028°40'0 0.0
2018-Feb-19 10:58N 44°10' E 028°40'0 0.0
2018-Feb-19 10:28N 44°10' E 028°40'0 0.0
2018-Feb-19 09:58N 44°10' E 028°40'0 0.0
2018-Feb-19 09:25N 44°10' E 028°40'0 0.0
2018-Feb-19 08:58N 44°10' E 028°40'0 0.0
2018-Feb-19 08:22N 44°10' E 028°40'0 0.0
2018-Feb-19 07:58N 44°10' E 028°40'0 0.0
2018-Feb-19 07:28N 44°10' E 028°40'0 0.0
2018-Feb-19 06:58N 44°10' E 028°40'0 0.0
2018-Feb-19 06:25N 44°10' E 028°40'0 0.0
2018-Feb-19 05:58N 44°10' E 028°40'0 0.0
2018-Feb-19 05:28N 44°10' E 028°40'0 0.0
2018-Feb-19 04:55N 44°10' E 028°40'0 0.0
2018-Feb-19 04:28N 44°10' E 028°40'0 0.0
2018-Feb-19 03:58N 44°10' E 028°40'0 0.0
2018-Feb-19 03:28N 44°10' E 028°40'0 0.0
2018-Feb-19 02:58N 44°10' E 028°40'0 0.0
2018-Feb-19 02:28N 44°10' E 028°40'0 0.0
2018-Feb-19 01:58N 44°10' E 028°40'0 0.0
2018-Feb-19 01:25N 44°10' E 028°40'0 0.0
2018-Feb-19 00:58N 44°10' E 028°40'0 0.0
2018-Feb-19 00:28N 44°10' E 028°40'0 0.0
2018-Feb-18 23:58N 44°10' E 028°40'0 0.0
2018-Feb-18 23:28N 44°10' E 028°40'0 0.0
2018-Feb-18 22:58N 44°10' E 028°40'0 0.0
2018-Feb-18 22:28N 44°10' E 028°40'0 0.0
2018-Feb-18 21:58N 44°10' E 028°40'0 0.0
2018-Feb-18 21:28N 44°10' E 028°40'0 0.0
2018-Feb-18 20:55N 44°10' E 028°40'0 0.0
2018-Feb-18 20:28N 44°10' E 028°40'0 0.0
2018-Feb-18 19:58N 44°10' E 028°40'0 0.0
2018-Feb-18 19:28N 44°10' E 028°40'0 0.0
2018-Feb-18 18:58N 44°10' E 028°40'0 0.0
2018-Feb-18 18:25N 44°10' E 028°40'0 0.0
2018-Feb-18 17:58N 44°10' E 028°40'0 0.0
2018-Feb-18 17:28N 44°10' E 028°40'0 0.0
2018-Feb-18 16:58N 44°10' E 028°40'0 0.0
2018-Feb-18 16:28N 44°10' E 028°40'0 0.0
2018-Feb-18 15:58N 44°10' E 028°40'0 0.0
2018-Feb-18 15:28N 44°10' E 028°40'0 0.0
2018-Feb-18 14:58N 44°10' E 028°40'1 1.4
2018-Feb-18 14:30N 44°09' E 028°39'0 0.1
2018-Feb-18 13:54N 44°09' E 028°39'1 1.8
2018-Feb-18 13:29N 44°09' E 028°40'0 0.4
2018-Feb-18 13:00N 44°09' E 028°40'1 1.2
2018-Feb-18 12:27N 44°10' E 028°40'0 0.6
2018-Feb-18 12:00N 44°10' E 028°39'0 0.4
2018-Feb-18 11:28N 44°10' E 028°39'0 0.1
2018-Feb-18 11:01N 44°10' E 028°39'0 0.7
2018-Feb-18 10:28N 44°10' E 028°40'0 0.0
2018-Feb-18 09:58N 44°10' E 028°40'0 0.0
2018-Feb-18 09:28N 44°10' E 028°40'0 0.0
2018-Feb-18 08:58N 44°10' E 028°40'0 0.0
2018-Feb-18 08:28N 44°10' E 028°40'0 0.0
2018-Feb-18 07:58N 44°10' E 028°40'0 0.0
2018-Feb-18 07:28N 44°10' E 028°40'0 0.0
2018-Feb-18 06:58N 44°10' E 028°40'0 0.0
2018-Feb-18 06:28N 44°10' E 028°40'0 0.0
2018-Feb-18 05:58N 44°10' E 028°40'0 0.0
2018-Feb-18 05:28N 44°10' E 028°40'0 0.0
2018-Feb-18 04:58N 44°10' E 028°40'0 0.0
2018-Feb-18 04:28N 44°10' E 028°40'0 0.0
2018-Feb-18 03:58N 44°10' E 028°40'0 0.0
2018-Feb-18 03:28N 44°10' E 028°40'0 0.0
2018-Feb-18 02:58N 44°10' E 028°40'0 0.0
2018-Feb-18 02:28N 44°10' E 028°40'0 0.0
2018-Feb-18 01:58N 44°10' E 028°40'0 0.0
2018-Feb-18 01:28N 44°10' E 028°40'0 0.0
2018-Feb-18 00:58N 44°10' E 028°40'0 0.0
2018-Feb-18 00:28N 44°10' E 028°40'0 0.0
2018-Feb-17 23:55N 44°10' E 028°40'0 0.0
2018-Feb-17 23:28N 44°10' E 028°40'0 0.0
2018-Feb-17 22:58N 44°10' E 028°40'0 0.0
2018-Feb-17 22:28N 44°10' E 028°40'0 0.0
2018-Feb-17 21:58N 44°10' E 028°40'0 0.0
2018-Feb-17 21:28N 44°10' E 028°40'0 0.0
2018-Feb-17 20:58N 44°10' E 028°40'0 0.0
2018-Feb-17 20:28N 44°10' E 028°40'0 0.0
2018-Feb-17 19:58N 44°10' E 028°40'0 0.0
2018-Feb-17 19:28N 44°10' E 028°40'0 0.0
2018-Feb-17 18:58N 44°10' E 028°40'0 0.0
2018-Feb-17 18:28N 44°10' E 028°40'0 0.0
2018-Feb-17 17:58N 44°10' E 028°40'0 0.0
2018-Feb-17 17:28N 44°10' E 028°40'0 0.0
2018-Feb-17 16:58N 44°10' E 028°40'0 0.0
2018-Feb-17 16:28N 44°10' E 028°40'0 0.0
2018-Feb-17 15:58N 44°10' E 028°40'0 0.0
2018-Feb-17 15:28N 44°10' E 028°40'0 0.0
2018-Feb-17 14:58N 44°10' E 028°40'0 0.0
2018-Feb-17 14:28N 44°10' E 028°40'0 0.0
2018-Feb-17 13:58N 44°10' E 028°40'0 0.0
2018-Feb-17 13:28N 44°10' E 028°40'0 0.0
2018-Feb-17 12:58N 44°10' E 028°40'0 0.0
2018-Feb-17 12:30N 44°10' E 028°40'1 1.1
2018-Feb-17 12:00N 44°09' E 028°39'0 0.2
2018-Feb-17 11:28N 44°09' E 028°39'1 2.6
2018-Feb-17 11:00N 44°08' E 028°40'1 2.3
2018-Feb-17 10:26N 44°10' E 028°40'1 1.2
2018-Feb-17 10:00N 44°09' E 028°40'0 0.9
2018-Feb-17 09:30N 44°09' E 028°39'0 1.0
2018-Feb-17 09:00N 44°10' E 028°40'0 0.0
2018-Feb-17 08:30N 44°10' E 028°40'0 0.0
2018-Feb-17 08:00N 44°10' E 028°40'0 0.0
2018-Feb-17 07:30N 44°10' E 028°40'0 0.0
2018-Feb-17 07:00N 44°10' E 028°40'0 0.0
2018-Feb-17 06:30N 44°10' E 028°40'0 0.0
2018-Feb-17 06:00N 44°10' E 028°40'0 0.0
2018-Feb-17 05:30N 44°10' E 028°40'0 0.0
2018-Feb-17 05:00N 44°10' E 028°40'0 0.0
2018-Feb-17 04:30N 44°10' E 028°40'0 0.0
2018-Feb-17 04:00N 44°10' E 028°40'0 0.0
2018-Feb-17 03:30N 44°10' E 028°40'0 0.0
2018-Feb-17 03:00N 44°10' E 028°40'1 1.5
2018-Feb-17 02:30N 44°09' E 028°40'0 0.0
2018-Feb-17 01:58N 44°09' E 028°40'0 0.5
2018-Feb-17 01:30N 44°09' E 028°40'1 1.3
2018-Feb-17 00:59N 44°10' E 028°40'0 0.0
2018-Feb-17 00:29N 44°10' E 028°40'0 0.0
2018-Feb-16 23:59N 44°10' E 028°40'0 0.0
2018-Feb-16 23:29N 44°10' E 028°40'0 0.0
2018-Feb-16 22:59N 44°10' E 028°40'0 0.0
2018-Feb-16 22:29N 44°10' E 028°40'0 0.0
2018-Feb-16 21:59N 44°10' E 028°40'0 0.0
2018-Feb-16 21:29N 44°10' E 028°40'0 0.0
2018-Feb-16 20:59N 44°10' E 028°40'0 0.0
2018-Feb-16 20:29N 44°10' E 028°40'0 0.0
2018-Feb-16 19:59N 44°10' E 028°40'0 0.0
2018-Feb-16 19:29N 44°10' E 028°40'0 0.0
2018-Feb-16 18:59N 44°10' E 028°40'0 0.0
2018-Feb-16 18:29N 44°10' E 028°40'0 0.0
2018-Feb-16 17:59N 44°10' E 028°40'0 0.0
2018-Feb-16 17:29N 44°10' E 028°40'0 0.0
2018-Feb-16 16:59N 44°10' E 028°40'0 0.0
2018-Feb-16 16:23N 44°10' E 028°40'1 2.1
2018-Feb-16 16:00N 44°09' E 028°39'0 0.9
2018-Feb-16 15:30N 44°09' E 028°39'2 4.2
2018-Feb-16 15:00N 44°07' E 028°41'1 2.2
2018-Feb-16 14:28N 44°06' E 028°40'0 0.3
2018-Feb-16 14:00N 44°06' E 028°39'0 0.6
2018-Feb-16 13:30N 44°06' E 028°39'0 0.0
2018-Feb-16 13:00N 44°06' E 028°39'0 0.0
2018-Feb-16 12:30N 44°06' E 028°39'0 0.0
2018-Feb-16 12:00N 44°06' E 028°39'0 0.0
2018-Feb-16 11:30N 44°06' E 028°39'0 0.0
2018-Feb-16 11:00N 44°06' E 028°39'0 0.3
2018-Feb-16 10:30N 44°06' E 028°39'1 1.6
2018-Feb-16 09:59N 44°06' E 028°41'0 0.9
2018-Feb-16 09:30N 44°07' E 028°41'2 4.1
2018-Feb-16 09:00N 44°08' E 028°40'1 2.5
2018-Feb-16 08:30N 44°10' E 028°40'0 0.0
2018-Feb-16 08:00N 44°10' E 028°40'0 0.0
2018-Feb-16 07:30N 44°10' E 028°40'0 0.0
2018-Feb-16 07:00N 44°10' E 028°40'0 0.0
2018-Feb-16 06:30N 44°10' E 028°40'0 0.0
2018-Feb-16 06:00N 44°10' E 028°40'0 0.0
2018-Feb-16 05:30N 44°10' E 028°40'0 0.0
2018-Feb-16 04:54N 44°10' E 028°40'0 0.0
2018-Feb-16 04:30N 44°10' E 028°40'0 0.0
2018-Feb-16 04:00N 44°10' E 028°40'0 0.0
2018-Feb-16 03:30N 44°10' E 028°40'0 0.0
2018-Feb-16 03:00N 44°10' E 028°40'0 0.0
2018-Feb-16 02:30N 44°10' E 028°40'0 0.0
2018-Feb-16 02:00N 44°10' E 028°40'0 0.0
2018-Feb-16 01:30N 44°10' E 028°40'0 0.0
2018-Feb-16 01:00N 44°10' E 028°40'0 0.0
2018-Feb-16 00:30N 44°10' E 028°40'0 0.0
2018-Feb-16 00:00N 44°10' E 028°40'0 0.0
2018-Feb-15 23:30N 44°10' E 028°40'0 0.0
2018-Feb-15 23:00N 44°10' E 028°40'0 0.0
2018-Feb-15 22:30N 44°10' E 028°40'0 0.0
2018-Feb-15 22:00N 44°10' E 028°40'  

Dump ship's entire track history